Pataskala, Ohio
Current Conditions -  °F | °C
As of 4:54 PM on Tuesday 25 Nov 2014 (Local Time) from KVTA Reporting Station
Scattered Clouds Scattered Clouds  
Wind Chill: 32°   Ceiling: Unl
Heat Index: 37°   Visibility: 10mi
Dew Point: 26°   Wind: 6mph
Humidity: 65%   Direction: 300°WNW
Pressure: 30.11"   Gusts: NA
Location:  40°N, 82.67°W
Report Text: KVTA 252154Z AUTO 30005KT 10SM SCT036 03/M03 A3011 RMK AO2 SLP202 T00281033
Loading
Personal Weather Stations






























Interactive Weather Map New forecast layout! Learn more

10-Day Weather Forecast

Advertisements
Track Severe Weather on mobile